createdAt,value
2022-07-31T00:00:19.768Z,18.69
2022-07-31T00:00:52.718Z,18.69
2022-07-31T00:01:24.659Z,18.63
2022-07-31T00:01:56.574Z,18.63
2022-07-31T00:02:29.490Z,18.69
2022-07-31T00:03:01.611Z,18.63
2022-07-31T00:03:33.683Z,18.63
2022-07-31T00:04:06.731Z,18.63
2022-07-31T00:04:38.885Z,18.63
2022-07-31T00:05:11.118Z,18.63
2022-07-31T00:05:45.470Z,18.63
2022-07-31T00:06:19.643Z,18.63
2022-07-31T00:06:52.689Z,18.63
2022-07-31T00:07:25.631Z,18.63
2022-07-31T00:07:58.609Z,18.63
2022-07-31T00:08:30.508Z,18.63
2022-07-31T00:09:03.429Z,18.63
2022-07-31T00:09:53.733Z,18.63
2022-07-31T00:10:27.636Z,18.63
2022-07-31T00:10:59.821Z,18.63
2022-07-31T00:11:31.732Z,18.63
2022-07-31T00:12:05.464Z,18.63
2022-07-31T00:12:37.455Z,18.63
2022-07-31T00:13:10.399Z,18.56
2022-07-31T00:13:57.340Z,18.56
2022-07-31T00:14:30.448Z,18.56
2022-07-31T00:15:02.660Z,18.56
2022-07-31T00:15:35.614Z,18.56
2022-07-31T00:16:07.702Z,18.56
2022-07-31T00:16:39.733Z,18.56
2022-07-31T00:17:12.719Z,18.56
2022-07-31T00:17:45.069Z,18.56
2022-07-31T00:18:17.187Z,18.56
2022-07-31T00:18:49.193Z,18.56
2022-07-31T00:19:22.170Z,18.56
2022-07-31T00:19:54.109Z,18.56
2022-07-31T00:20:26.132Z,18.56
2022-07-31T00:21:01.104Z,18.56
2022-07-31T00:21:33.075Z,18.56
2022-07-31T00:22:05.028Z,18.56
2022-07-31T00:22:37.942Z,18.56
2022-07-31T00:23:10.940Z,18.56
2022-07-31T00:23:43.332Z,18.56
2022-07-31T00:24:16.230Z,18.56
2022-07-31T00:24:48.223Z,18.56
2022-07-31T00:25:20.273Z,18.56
2022-07-31T00:25:53.259Z,18.56
2022-07-31T00:26:25.212Z,18.56
2022-07-31T00:26:57.464Z,18.56
2022-07-31T00:27:30.447Z,18.56
2022-07-31T00:28:02.739Z,18.56
2022-07-31T00:28:35.728Z,18.56
2022-07-31T00:29:07.713Z,18.56
2022-07-31T00:29:40.094Z,18.56
2022-07-31T00:30:14.059Z,18.56
2022-07-31T00:30:46.011Z,18.56
2022-07-31T00:31:18.568Z,18.56
2022-07-31T00:31:51.537Z,18.56
2022-07-31T00:32:23.595Z,18.56
2022-07-31T00:32:55.889Z,18.56
2022-07-31T00:33:28.773Z,18.56
2022-07-31T00:34:00.757Z,18.50
2022-07-31T00:34:32.771Z,18.56
2022-07-31T00:35:08.967Z,18.56
2022-07-31T00:35:41.329Z,18.56
2022-07-31T00:36:14.713Z,18.56
2022-07-31T00:36:47.706Z,18.56
2022-07-31T00:37:19.644Z,18.56
2022-07-31T00:37:54.814Z,18.56
2022-07-31T00:38:35.305Z,18.56
2022-07-31T00:39:07.229Z,18.56
2022-07-31T00:39:39.209Z,18.56
2022-07-31T00:40:14.042Z,18.50
2022-07-31T00:40:47.735Z,18.50
2022-07-31T00:41:19.679Z,18.56
2022-07-31T00:41:54.908Z,18.56
2022-07-31T00:42:27.857Z,18.56
2022-07-31T00:43:00.101Z,18.56
2022-07-31T00:43:33.211Z,18.56
2022-07-31T00:44:05.844Z,18.56
2022-07-31T00:44:44.285Z,18.56
2022-07-31T00:45:22.201Z,18.56
2022-07-31T00:46:01.815Z,18.56
2022-07-31T00:46:34.108Z,18.56
2022-07-31T00:47:09.102Z,18.56
2022-07-31T00:47:42.275Z,18.56
2022-07-31T00:48:14.322Z,18.56
2022-07-31T00:48:47.328Z,18.56
2022-07-31T00:49:19.412Z,18.56
2022-07-31T00:49:51.531Z,18.56
2022-07-31T00:50:23.574Z,18.56
2022-07-31T00:50:56.722Z,18.56
2022-07-31T00:51:30.242Z,18.56
2022-07-31T00:52:04.580Z,18.56
2022-07-31T00:52:37.551Z,18.56
2022-07-31T00:53:09.466Z,18.56
2022-07-31T00:53:41.454Z,18.56
2022-07-31T00:54:22.671Z,18.56
2022-07-31T00:54:55.197Z,18.56
2022-07-31T00:55:27.189Z,18.56
2022-07-31T00:56:00.412Z,18.56
2022-07-31T00:56:32.455Z,18.56
2022-07-31T00:57:04.762Z,18.56
2022-07-31T00:57:38.416Z,18.56
2022-07-31T00:58:10.409Z,18.56
2022-07-31T00:58:42.382Z,18.56
2022-07-31T00:59:15.341Z,18.56
2022-07-31T00:59:47.359Z,18.56
2022-07-31T01:00:19.374Z,18.56
2022-07-31T01:00:52.562Z,18.50
2022-07-31T01:01:24.687Z,18.50
2022-07-31T01:01:57.020Z,18.50
2022-07-31T01:02:29.939Z,18.50
2022-07-31T01:03:02.043Z,18.50
2022-07-31T01:03:33.963Z,18.50
2022-07-31T01:04:07.251Z,18.50
2022-07-31T01:04:47.702Z,18.50
2022-07-31T01:05:20.675Z,18.50
2022-07-31T01:05:52.816Z,18.50
2022-07-31T01:06:24.891Z,18.44
2022-07-31T01:06:59.402Z,18.44
2022-07-31T01:07:32.638Z,18.50
2022-07-31T01:08:05.216Z,18.44
2022-07-31T01:08:37.165Z,18.44
2022-07-31T01:09:10.287Z,18.44
2022-07-31T01:09:42.554Z,18.44
2022-07-31T01:10:22.490Z,18.44
2022-07-31T01:11:00.020Z,18.44
2022-07-31T01:11:38.398Z,18.44
2022-07-31T01:12:14.273Z,18.44
2022-07-31T01:12:54.360Z,18.44
2022-07-31T01:13:35.946Z,18.44
2022-07-31T01:14:10.084Z,18.44
2022-07-31T01:14:47.305Z,18.44
2022-07-31T01:15:20.567Z,18.44
2022-07-31T01:15:54.445Z,18.44
2022-07-31T01:16:30.698Z,18.44
2022-07-31T01:17:04.820Z,18.44
2022-07-31T01:17:39.266Z,18.44
2022-07-31T01:18:12.316Z,18.44
2022-07-31T01:18:48.014Z,18.44
2022-07-31T01:19:38.065Z,18.44
2022-07-31T01:20:15.978Z,18.44
2022-07-31T01:20:49.786Z,18.44
2022-07-31T01:21:28.966Z,18.44
2022-07-31T01:22:33.063Z,18.44
2022-07-31T01:23:21.824Z,18.44
2022-07-31T01:24:22.412Z,18.44
2022-07-31T01:25:18.246Z,18.44
2022-07-31T01:26:03.231Z,18.44
2022-07-31T01:26:53.304Z,18.44
2022-07-31T01:27:30.961Z,18.44
2022-07-31T01:28:14.091Z,18.44
2022-07-31T01:29:01.506Z,18.44
2022-07-31T01:29:37.885Z,18.44
2022-07-31T01:30:11.635Z,18.44
2022-07-31T01:30:50.441Z,18.44
2022-07-31T01:31:33.980Z,18.44
2022-07-31T01:32:10.839Z,18.44
2022-07-31T01:32:48.134Z,18.44
2022-07-31T01:33:23.831Z,18.44
2022-07-31T01:34:03.814Z,18.44
2022-07-31T01:34:42.299Z,18.44
2022-07-31T01:35:18.854Z,18.44
2022-07-31T01:35:55.208Z,18.44
2022-07-31T01:36:35.016Z,18.44
2022-07-31T01:37:14.619Z,18.44
2022-07-31T01:37:50.568Z,18.44
2022-07-31T01:38:25.792Z,18.44
2022-07-31T01:38:59.213Z,18.44
2022-07-31T01:39:34.271Z,18.44
2022-07-31T01:40:13.080Z,18.44
2022-07-31T01:40:49.225Z,18.44
2022-07-31T01:41:26.742Z,18.44
2022-07-31T01:42:00.844Z,18.44
2022-07-31T01:42:37.607Z,18.44
2022-07-31T01:43:15.388Z,18.44
2022-07-31T01:43:52.075Z,18.44
2022-07-31T01:44:29.249Z,18.44
2022-07-31T01:45:03.256Z,18.44
2022-07-31T01:45:36.628Z,18.44
2022-07-31T01:46:13.801Z,18.44
2022-07-31T01:46:47.847Z,18.44
2022-07-31T01:47:23.144Z,18.44
2022-07-31T01:47:57.714Z,18.44
2022-07-31T01:48:35.432Z,18.44
2022-07-31T01:49:08.835Z,18.44
2022-07-31T01:49:42.667Z,18.44
2022-07-31T01:50:42.646Z,18.44
2022-07-31T01:51:09.701Z,18.44
2022-07-31T01:51:44.132Z,18.44
2022-07-31T01:52:16.708Z,18.44
2022-07-31T01:52:51.067Z,18.44
2022-07-31T01:53:26.860Z,18.44
2022-07-31T01:54:01.140Z,18.44
2022-07-31T01:54:34.461Z,18.38
2022-07-31T01:55:10.491Z,18.44
2022-07-31T01:56:01.316Z,18.38
2022-07-31T01:56:41.255Z,18.44
2022-07-31T01:57:18.571Z,18.44
2022-07-31T01:57:56.340Z,18.44
2022-07-31T01:58:31.063Z,18.44
2022-07-31T01:59:15.619Z,18.44
2022-07-31T02:00:34.574Z,18.38
2022-07-31T02:01:09.003Z,18.38
2022-07-31T02:01:47.498Z,18.38
2022-07-31T02:02:23.839Z,18.38
2022-07-31T02:02:58.697Z,18.38
2022-07-31T02:03:45.272Z,18.38
2022-07-31T02:04:21.055Z,18.38
2022-07-31T02:04:54.815Z,18.38
2022-07-31T02:05:27.781Z,18.38
2022-07-31T02:06:01.015Z,18.38
2022-07-31T02:06:37.766Z,18.38
2022-07-31T02:07:11.321Z,18.38
2022-07-31T02:07:46.514Z,18.38
2022-07-31T02:08:20.678Z,18.38
2022-07-31T02:08:59.617Z,18.38
2022-07-31T02:09:34.437Z,18.38
2022-07-31T02:10:10.011Z,18.44
2022-07-31T02:10:44.617Z,18.44
2022-07-31T02:11:20.076Z,18.44
2022-07-31T02:11:54.611Z,18.44
2022-07-31T02:12:33.040Z,18.44
2022-07-31T02:13:07.971Z,18.44
2022-07-31T02:13:40.782Z,18.44
2022-07-31T02:14:14.119Z,18.44
2022-07-31T02:14:47.968Z,18.44
2022-07-31T02:15:21.941Z,18.44
2022-07-31T02:15:56.509Z,18.44
2022-07-31T02:16:30.488Z,18.44
2022-07-31T02:17:11.761Z,18.44
2022-07-31T02:18:23.087Z,18.38
2022-07-31T02:19:14.907Z,18.38
2022-07-31T02:19:59.996Z,18.38
2022-07-31T02:20:34.868Z,18.38
2022-07-31T02:21:07.935Z,18.38
2022-07-31T02:21:42.691Z,18.38
2022-07-31T02:22:15.379Z,18.38
2022-07-31T02:22:47.486Z,18.38
2022-07-31T02:23:20.502Z,18.38
2022-07-31T02:23:52.578Z,18.38
2022-07-31T02:24:24.614Z,18.38
2022-07-31T02:24:57.672Z,18.38
2022-07-31T02:25:30.312Z,18.38
2022-07-31T02:26:04.259Z,18.38
2022-07-31T02:26:38.918Z,18.38
2022-07-31T02:27:54.310Z,18.38
2022-07-31T02:28:20.272Z,18.38
2022-07-31T02:28:53.317Z,18.31
2022-07-31T02:29:27.531Z,18.38
2022-07-31T02:30:02.349Z,18.31
2022-07-31T02:30:38.615Z,18.38
2022-07-31T02:31:17.783Z,18.38
2022-07-31T02:32:09.733Z,18.38
2022-07-31T02:32:45.905Z,18.38
2022-07-31T02:33:20.982Z,18.31
2022-07-31T02:33:55.225Z,18.31
2022-07-31T02:34:29.930Z,18.31
2022-07-31T02:35:04.818Z,18.38
2022-07-31T02:35:39.637Z,18.38
2022-07-31T02:36:18.798Z,18.38
2022-07-31T02:36:52.592Z,18.38
2022-07-31T02:37:26.890Z,18.38
2022-07-31T02:37:59.699Z,18.38
2022-07-31T02:38:33.611Z,18.38
2022-07-31T02:39:09.620Z,18.38
2022-07-31T02:39:42.163Z,18.38
2022-07-31T02:40:14.998Z,18.44
2022-07-31T02:40:48.307Z,18.38
2022-07-31T02:41:21.094Z,18.38
2022-07-31T02:41:53.321Z,18.38
2022-07-31T02:42:26.651Z,18.38
2022-07-31T02:42:59.162Z,18.38
2022-07-31T02:43:33.135Z,18.38
2022-07-31T02:44:13.496Z,18.38
2022-07-31T02:44:46.754Z,18.38
2022-07-31T02:45:19.235Z,18.38
2022-07-31T02:45:55.496Z,18.38
2022-07-31T02:46:28.185Z,18.38
2022-07-31T02:47:02.488Z,18.38
2022-07-31T02:47:36.230Z,18.38
2022-07-31T02:48:09.766Z,18.38
2022-07-31T02:48:46.473Z,18.38
2022-07-31T02:49:21.071Z,18.38
2022-07-31T02:49:55.879Z,18.38
2022-07-31T02:50:28.134Z,18.38
2022-07-31T02:51:00.458Z,18.38
2022-07-31T02:51:42.685Z,18.38
2022-07-31T02:52:15.713Z,18.38
2022-07-31T02:52:47.847Z,18.38
2022-07-31T02:53:21.798Z,18.38
2022-07-31T02:53:57.745Z,18.38
2022-07-31T02:54:34.208Z,18.38
2022-07-31T02:55:07.284Z,18.38
2022-07-31T02:55:40.540Z,18.38
2022-07-31T02:56:15.558Z,18.38
2022-07-31T02:56:48.042Z,18.38
2022-07-31T02:57:20.419Z,18.38
2022-07-31T02:57:52.493Z,18.38
2022-07-31T02:58:26.265Z,18.38
2022-07-31T02:58:58.317Z,18.38
2022-07-31T02:59:32.316Z,18.38
2022-07-31T03:00:19.472Z,18.38
2022-07-31T03:01:03.424Z,18.38
2022-07-31T03:01:37.376Z,18.38
2022-07-31T03:02:11.850Z,18.38
2022-07-31T03:02:47.814Z,18.38
2022-07-31T03:03:19.859Z,18.38
2022-07-31T03:03:53.270Z,18.38
2022-07-31T03:04:25.322Z,18.38
2022-07-31T03:04:57.367Z,18.38
2022-07-31T03:05:31.451Z,18.38
2022-07-31T03:06:03.951Z,18.38
2022-07-31T03:06:36.223Z,18.38
2022-07-31T03:07:10.039Z,18.38
2022-07-31T03:07:42.224Z,18.38
2022-07-31T03:08:14.368Z,18.31
2022-07-31T03:08:49.796Z,18.31
2022-07-31T03:09:25.952Z,18.31
2022-07-31T03:10:17.022Z,18.31
2022-07-31T03:11:08.717Z,18.31
2022-07-31T03:11:40.864Z,18.31
2022-07-31T03:12:13.824Z,18.31
2022-07-31T03:12:51.111Z,18.31
2022-07-31T03:13:25.905Z,18.31
2022-07-31T03:14:01.987Z,18.31
2022-07-31T03:14:35.982Z,18.31
2022-07-31T03:15:10.296Z,18.31
2022-07-31T03:15:50.776Z,18.31
2022-07-31T03:16:25.568Z,18.31
2022-07-31T03:16:58.549Z,18.31
2022-07-31T03:17:40.904Z,18.31
2022-07-31T03:18:17.611Z,18.31
2022-07-31T03:18:51.442Z,18.31
2022-07-31T03:19:24.628Z,18.25
2022-07-31T03:19:56.793Z,18.25
2022-07-31T03:20:30.943Z,18.31
2022-07-31T03:21:06.636Z,18.25
2022-07-31T03:21:39.170Z,18.31
2022-07-31T03:22:15.394Z,18.31
2022-07-31T03:22:48.216Z,18.31
2022-07-31T03:23:22.052Z,18.31
2022-07-31T03:24:00.649Z,18.31
2022-07-31T03:24:35.208Z,18.31
2022-07-31T03:25:08.235Z,18.31
2022-07-31T03:25:42.510Z,18.31
2022-07-31T03:26:15.753Z,18.31
2022-07-31T03:26:47.870Z,18.31
2022-07-31T03:27:21.484Z,18.31
2022-07-31T03:27:56.506Z,18.31
2022-07-31T03:28:30.438Z,18.31
2022-07-31T03:29:02.855Z,18.31
2022-07-31T03:29:42.389Z,18.31
2022-07-31T03:30:19.142Z,18.31
2022-07-31T03:30:56.148Z,18.31
2022-07-31T03:31:32.056Z,18.31
2022-07-31T03:32:06.479Z,18.31
2022-07-31T03:32:40.016Z,18.31
2022-07-31T03:33:12.415Z,18.31
2022-07-31T03:33:45.456Z,18.31
2022-07-31T03:34:19.313Z,18.31
2022-07-31T03:34:51.380Z,18.31
2022-07-31T03:35:27.061Z,18.31
2022-07-31T03:35:59.284Z,18.31
2022-07-31T03:36:32.112Z,18.31
2022-07-31T03:37:05.188Z,18.31
2022-07-31T03:37:37.835Z,18.31
2022-07-31T03:38:39.077Z,18.31
2022-07-31T03:39:05.399Z,18.31
2022-07-31T03:39:48.335Z,18.31
2022-07-31T03:40:20.740Z,18.31
2022-07-31T03:40:53.080Z,18.31
2022-07-31T03:41:26.258Z,18.31
2022-07-31T03:41:59.428Z,18.31
2022-07-31T03:42:32.278Z,18.31
2022-07-31T03:43:06.616Z,18.31
2022-07-31T03:43:47.419Z,18.31
2022-07-31T03:44:23.030Z,18.31
2022-07-31T03:44:56.872Z,18.31
2022-07-31T03:45:30.648Z,18.31
2022-07-31T03:46:06.084Z,18.31
2022-07-31T03:46:40.640Z,18.31
2022-07-31T03:47:13.314Z,18.31
2022-07-31T03:47:49.428Z,18.31
2022-07-31T03:48:22.609Z,18.31
2022-07-31T03:48:55.125Z,18.31
2022-07-31T03:49:30.960Z,18.31
2022-07-31T03:50:05.179Z,18.31
2022-07-31T03:50:38.027Z,18.31
2022-07-31T03:51:10.283Z,18.31
2022-07-31T03:51:43.313Z,18.31
2022-07-31T03:52:15.627Z,18.31
2022-07-31T03:52:48.050Z,18.31
2022-07-31T03:53:21.729Z,18.31
2022-07-31T03:53:54.064Z,18.31
2022-07-31T03:54:54.602Z,18.31
2022-07-31T03:55:28.343Z,18.31
2022-07-31T03:56:02.669Z,18.31
2022-07-31T03:56:37.400Z,18.31
2022-07-31T03:57:11.638Z,18.31
2022-07-31T03:57:47.573Z,18.31
2022-07-31T03:58:20.535Z,18.31
2022-07-31T03:58:53.510Z,18.31
2022-07-31T03:59:28.389Z,18.31
2022-07-31T04:00:07.349Z,18.31
2022-07-31T04:00:51.038Z,18.31
2022-07-31T04:01:24.246Z,18.31
2022-07-31T04:02:04.562Z,18.31
2022-07-31T04:02:48.910Z,18.31
2022-07-31T04:03:39.852Z,18.31
2022-07-31T04:04:34.455Z,18.31
2022-07-31T04:05:10.164Z,18.31
2022-07-31T04:05:45.335Z,18.31
2022-07-31T04:06:17.390Z,18.31
2022-07-31T04:06:49.815Z,18.31
2022-07-31T04:07:21.851Z,18.31
2022-07-31T04:07:54.783Z,18.31
2022-07-31T04:08:27.252Z,18.31
2022-07-31T04:09:01.554Z,18.31
2022-07-31T04:09:49.560Z,18.31
2022-07-31T04:10:22.002Z,18.31
2022-07-31T04:10:55.005Z,18.31
2022-07-31T04:11:29.753Z,18.31
2022-07-31T04:12:02.142Z,18.31
2022-07-31T04:12:35.335Z,18.31
2022-07-31T04:13:07.378Z,18.31
2022-07-31T04:13:39.328Z,18.31
2022-07-31T04:14:12.335Z,18.31
2022-07-31T04:14:44.414Z,18.31
2022-07-31T04:15:17.331Z,18.31
2022-07-31T04:15:50.425Z,18.31
2022-07-31T04:16:22.417Z,18.31
2022-07-31T04:16:55.446Z,18.31
2022-07-31T04:17:30.725Z,18.31
2022-07-31T04:18:04.296Z,18.38
2022-07-31T04:18:41.939Z,18.38
2022-07-31T04:19:22.674Z,18.38
2022-07-31T04:19:57.069Z,18.38
2022-07-31T04:20:29.087Z,18.38
2022-07-31T04:21:01.395Z,18.38
2022-07-31T04:21:34.416Z,18.38
2022-07-31T04:22:07.054Z,18.38
2022-07-31T04:22:39.561Z,18.38
2022-07-31T04:23:20.392Z,18.38
2022-07-31T04:24:16.833Z,18.38
2022-07-31T04:25:16.365Z,18.38
2022-07-31T04:26:11.717Z,18.44
2022-07-31T04:27:00.708Z,18.44
2022-07-31T04:27:48.005Z,18.44
2022-07-31T04:28:22.401Z,18.44
2022-07-31T04:28:54.439Z,18.44
2022-07-31T04:29:28.673Z,18.44
2022-07-31T04:30:01.663Z,18.50
2022-07-31T04:30:35.546Z,18.50
2022-07-31T04:31:07.699Z,18.50
2022-07-31T04:31:44.057Z,18.50
2022-07-31T04:32:20.448Z,18.50
2022-07-31T04:32:59.860Z,18.50
2022-07-31T04:33:31.897Z,18.50
2022-07-31T04:34:03.955Z,18.50
2022-07-31T04:34:36.218Z,18.50
2022-07-31T04:35:10.507Z,18.56
2022-07-31T04:35:45.187Z,18.56
2022-07-31T04:36:29.963Z,18.56
2022-07-31T04:37:04.994Z,18.56
2022-07-31T04:37:36.959Z,18.56
2022-07-31T04:38:09.166Z,18.56
2022-07-31T04:38:43.587Z,18.63
2022-07-31T04:39:16.193Z,18.63
2022-07-31T04:39:48.543Z,18.63
2022-07-31T04:40:21.972Z,18.63
2022-07-31T04:40:54.040Z,18.63
2022-07-31T04:41:26.553Z,18.63
2022-07-31T04:41:59.543Z,18.63
2022-07-31T04:42:34.195Z,18.63
2022-07-31T04:43:06.251Z,18.69
2022-07-31T04:43:39.182Z,18.69
2022-07-31T04:44:11.578Z,18.69
2022-07-31T04:45:00.003Z,18.69
2022-07-31T04:45:32.021Z,18.75
2022-07-31T04:46:04.089Z,18.75
2022-07-31T04:46:50.897Z,18.75
2022-07-31T04:47:22.931Z,18.75
2022-07-31T04:47:58.814Z,18.75
2022-07-31T04:48:30.938Z,18.81
2022-07-31T04:49:03.367Z,18.81
2022-07-31T04:49:36.706Z,18.81
2022-07-31T04:50:10.139Z,18.81
2022-07-31T04:50:42.771Z,18.81
2022-07-31T04:51:19.657Z,18.81
2022-07-31T04:51:52.942Z,18.88
2022-07-31T04:52:26.013Z,18.88
2022-07-31T04:52:58.471Z,18.88
2022-07-31T04:53:33.495Z,18.88
2022-07-31T04:54:11.715Z,18.88
2022-07-31T04:54:44.175Z,18.94
2022-07-31T04:55:17.498Z,18.94
2022-07-31T04:56:04.344Z,18.94
2022-07-31T04:56:42.148Z,18.94
2022-07-31T04:57:18.479Z,19.00
2022-07-31T04:57:54.339Z,19.00
2022-07-31T04:58:26.302Z,19.00
2022-07-31T04:58:58.749Z,19.00
2022-07-31T04:59:59.759Z,19.00
2022-07-31T05:00:25.509Z,19.00
2022-07-31T05:00:58.819Z,19.06
2022-07-31T05:01:31.987Z,19.06
2022-07-31T05:02:04.254Z,19.06
2022-07-31T05:02:37.686Z,19.06
2022-07-31T05:03:11.660Z,19.06
2022-07-31T05:03:43.617Z,19.13
2022-07-31T05:04:15.983Z,19.13
2022-07-31T05:04:52.627Z,19.13
2022-07-31T05:05:30.320Z,19.13
2022-07-31T05:06:10.362Z,19.13
2022-07-31T05:06:44.839Z,19.13
2022-07-31T05:07:16.832Z,19.13
2022-07-31T05:07:50.417Z,19.19
2022-07-31T05:08:29.372Z,19.19
2022-07-31T05:09:05.472Z,19.19
2022-07-31T05:09:43.853Z,19.19
2022-07-31T05:10:30.732Z,19.19
2022-07-31T05:11:21.163Z,19.19
2022-07-31T05:11:54.534Z,19.25
2022-07-31T05:12:27.359Z,19.25
2022-07-31T05:13:00.019Z,19.25
2022-07-31T05:13:34.305Z,19.25
2022-07-31T05:14:08.424Z,19.25
2022-07-31T05:14:41.579Z,19.25
2022-07-31T05:15:14.158Z,19.25
2022-07-31T05:15:46.166Z,19.31
2022-07-31T05:16:19.968Z,19.31
2022-07-31T05:16:52.397Z,19.31
2022-07-31T05:17:25.495Z,19.31
2022-07-31T05:18:19.050Z,19.31
2022-07-31T05:18:55.446Z,19.31
2022-07-31T05:19:52.224Z,19.31
2022-07-31T05:20:59.746Z,19.31
2022-07-31T05:21:51.442Z,19.31
2022-07-31T05:22:40.182Z,19.31
2022-07-31T05:23:35.355Z,19.38
2022-07-31T05:24:16.032Z,19.38
2022-07-31T05:25:07.538Z,19.38
2022-07-31T05:25:40.514Z,19.38
2022-07-31T05:26:13.342Z,19.38
2022-07-31T05:26:46.393Z,19.38
2022-07-31T05:27:18.574Z,19.38
2022-07-31T05:27:51.405Z,19.38
2022-07-31T05:28:30.219Z,19.38
2022-07-31T05:29:03.989Z,19.38
2022-07-31T05:29:36.988Z,19.38
2022-07-31T05:30:10.909Z,19.38
2022-07-31T05:30:42.981Z,19.38
2022-07-31T05:31:16.672Z,19.38
2022-07-31T05:31:59.996Z,19.38
2022-07-31T05:32:34.477Z,19.38
2022-07-31T05:33:06.904Z,19.38
2022-07-31T05:33:40.394Z,19.38
2022-07-31T05:34:13.566Z,19.38
2022-07-31T05:34:45.689Z,19.38
2022-07-31T05:35:17.859Z,19.38
2022-07-31T05:35:50.877Z,19.44
2022-07-31T05:36:22.840Z,19.44
2022-07-31T05:36:55.805Z,19.44
2022-07-31T05:37:28.292Z,19.44
2022-07-31T05:38:00.529Z,19.44
2022-07-31T05:38:51.040Z,19.44
2022-07-31T05:40:03.542Z,19.44
2022-07-31T05:40:55.325Z,19.44
2022-07-31T05:41:49.058Z,19.44
2022-07-31T05:42:44.875Z,19.44
2022-07-31T05:43:30.417Z,19.44
2022-07-31T05:44:15.574Z,19.50
2022-07-31T05:44:51.891Z,19.50
2022-07-31T05:45:23.990Z,19.50
2022-07-31T05:45:56.282Z,19.50
2022-07-31T05:46:29.152Z,19.50
2022-07-31T05:47:02.115Z,19.50
2022-07-31T05:47:40.059Z,19.50
2022-07-31T05:48:14.313Z,19.50
2022-07-31T05:48:48.782Z,19.56
2022-07-31T05:49:26.723Z,19.56
2022-07-31T05:50:00.028Z,19.56
2022-07-31T05:50:34.200Z,19.56
2022-07-31T05:51:09.240Z,19.56
2022-07-31T05:51:44.657Z,19.56
2022-07-31T05:52:17.586Z,19.56
2022-07-31T05:52:52.916Z,19.56
2022-07-31T05:53:54.844Z,19.56
2022-07-31T05:54:45.780Z,19.56
2022-07-31T05:55:37.365Z,19.63
2022-07-31T05:56:11.977Z,19.63
2022-07-31T05:56:52.838Z,19.63
2022-07-31T05:57:34.773Z,19.63
2022-07-31T05:58:10.028Z,19.63
2022-07-31T05:58:48.435Z,19.63
2022-07-31T05:59:21.302Z,19.63
2022-07-31T05:59:53.580Z,19.63
2022-07-31T06:00:28.306Z,19.63
2022-07-31T06:01:02.443Z,19.63
2022-07-31T06:01:35.628Z,19.63
2022-07-31T06:02:14.507Z,19.63
2022-07-31T06:03:05.380Z,19.69
2022-07-31T06:04:07.019Z,19.69
2022-07-31T06:04:45.485Z,19.69
2022-07-31T06:05:17.495Z,19.69
2022-07-31T06:05:50.940Z,19.69
2022-07-31T06:06:22.892Z,19.69
2022-07-31T06:06:55.032Z,19.69
2022-07-31T06:07:28.054Z,19.69
2022-07-31T06:08:00.836Z,19.75
2022-07-31T06:08:37.404Z,19.75
2022-07-31T06:09:09.482Z,19.75
2022-07-31T06:09:45.158Z,19.75
2022-07-31T06:10:22.315Z,19.75
2022-07-31T06:10:54.278Z,19.75
2022-07-31T06:11:27.343Z,19.81
2022-07-31T06:12:00.653Z,19.81
2022-07-31T06:12:32.956Z,19.81
2022-07-31T06:13:07.527Z,19.81
2022-07-31T06:13:42.569Z,19.81
2022-07-31T06:14:27.528Z,19.81
2022-07-31T06:15:15.317Z,19.88
2022-07-31T06:15:49.369Z,19.88
2022-07-31T06:16:24.077Z,19.88
2022-07-31T06:16:56.142Z,19.88
2022-07-31T06:17:40.345Z,19.88
2022-07-31T06:18:25.731Z,19.88
2022-07-31T06:19:00.806Z,19.88
2022-07-31T06:19:34.508Z,19.88
2022-07-31T06:20:08.958Z,19.88
2022-07-31T06:20:40.968Z,19.88
2022-07-31T06:21:44.878Z,19.88
2022-07-31T06:22:16.900Z,19.88
2022-07-31T06:22:48.965Z,19.88
2022-07-31T06:23:29.796Z,19.88
2022-07-31T06:24:28.956Z,19.88
2022-07-31T06:25:03.144Z,19.88
2022-07-31T06:25:38.946Z,19.88
2022-07-31T06:26:12.341Z,19.88
2022-07-31T06:26:45.737Z,19.88
2022-07-31T06:27:33.401Z,19.88
2022-07-31T06:28:10.644Z,19.88
2022-07-31T06:28:48.614Z,19.88
2022-07-31T06:29:40.959Z,19.88
2022-07-31T06:30:16.954Z,19.88
2022-07-31T06:30:49.847Z,19.88
2022-07-31T06:31:22.574Z,19.88
2022-07-31T06:31:58.379Z,19.88
2022-07-31T06:32:30.383Z,19.81
2022-07-31T06:33:08.419Z,19.81
2022-07-31T06:33:41.853Z,19.81
2022-07-31T06:34:20.763Z,19.81
2022-07-31T06:34:56.086Z,19.81
2022-07-31T06:35:28.248Z,19.81
2022-07-31T06:36:30.284Z,19.81
2022-07-31T06:37:03.498Z,19.81
2022-07-31T06:37:35.635Z,19.81
2022-07-31T06:38:08.616Z,19.81
2022-07-31T06:39:00.590Z,19.81
2022-07-31T06:39:55.481Z,19.81
2022-07-31T06:41:00.758Z,19.81
2022-07-31T06:41:49.570Z,19.81
2022-07-31T06:42:33.676Z,19.81
2022-07-31T06:43:13.242Z,19.81
2022-07-31T06:44:03.718Z,19.75
2022-07-31T06:44:54.466Z,19.75
2022-07-31T06:46:02.505Z,19.75
2022-07-31T06:46:57.160Z,19.75
2022-07-31T06:47:50.424Z,19.69
2022-07-31T06:48:36.089Z,19.69
2022-07-31T06:49:14.187Z,19.69
2022-07-31T06:49:47.312Z,19.69
2022-07-31T06:50:20.672Z,19.69
2022-07-31T06:51:29.798Z,19.69
2022-07-31T06:51:54.922Z,19.69
2022-07-31T06:52:27.023Z,19.69
2022-07-31T06:53:01.174Z,19.69
2022-07-31T06:53:33.130Z,19.69
2022-07-31T06:54:07.061Z,19.69
2022-07-31T06:54:40.099Z,19.69
2022-07-31T06:55:12.182Z,19.63
2022-07-31T06:55:46.192Z,19.63
2022-07-31T06:56:18.283Z,19.63
2022-07-31T06:56:50.723Z,19.63
2022-07-31T06:57:24.100Z,19.63
2022-07-31T06:57:56.173Z,19.63
2022-07-31T06:58:28.246Z,19.63
2022-07-31T06:59:02.899Z,19.63
2022-07-31T06:59:39.710Z,19.63
2022-07-31T07:00:20.555Z,19.56
2022-07-31T07:00:55.667Z,19.56
2022-07-31T07:01:28.080Z,19.56
2022-07-31T07:02:01.284Z,19.56
2022-07-31T07:02:37.274Z,19.56
2022-07-31T07:03:10.624Z,19.56
2022-07-31T07:03:42.587Z,19.50
2022-07-31T07:04:14.695Z,19.50
2022-07-31T07:05:04.424Z,19.50
2022-07-31T07:05:43.844Z,19.50
2022-07-31T07:06:19.189Z,19.50
2022-07-31T07:06:51.276Z,19.50
2022-07-31T07:07:24.254Z,19.44
2022-07-31T07:08:04.358Z,19.44
2022-07-31T07:08:37.976Z,19.44
2022-07-31T07:09:11.011Z,19.44
2022-07-31T07:09:43.179Z,19.44
2022-07-31T07:10:21.085Z,19.44
2022-07-31T07:11:09.128Z,19.44
2022-07-31T07:11:44.708Z,19.44
2022-07-31T07:12:17.696Z,19.44
2022-07-31T07:12:51.467Z,19.44
2022-07-31T07:13:46.386Z,19.38
2022-07-31T07:14:20.435Z,19.38
2022-07-31T07:14:53.026Z,19.38
2022-07-31T07:15:25.022Z,19.38
2022-07-31T07:15:58.376Z,19.38
2022-07-31T07:16:32.092Z,19.38
2022-07-31T07:17:06.035Z,19.38
2022-07-31T07:17:38.697Z,19.38
2022-07-31T07:18:18.211Z,19.38
2022-07-31T07:18:56.103Z,19.38
2022-07-31T07:19:28.343Z,19.38
2022-07-31T07:20:01.479Z,19.38
2022-07-31T07:20:34.681Z,19.38
2022-07-31T07:21:07.955Z,19.38
2022-07-31T07:21:42.261Z,19.38
2022-07-31T07:22:14.813Z,19.31
2022-07-31T07:22:48.360Z,19.31
2022-07-31T07:23:33.243Z,19.31
2022-07-31T07:24:24.533Z,19.31
2022-07-31T07:25:03.309Z,19.25
2022-07-31T07:25:36.304Z,19.25
2022-07-31T07:26:08.538Z,19.25
2022-07-31T07:26:40.543Z,19.19
2022-07-31T07:27:13.631Z,19.19
2022-07-31T07:27:45.563Z,19.19
2022-07-31T07:28:29.431Z,19.19
2022-07-31T07:29:05.604Z,19.19
2022-07-31T07:29:38.569Z,19.19
2022-07-31T07:30:12.437Z,19.13
2022-07-31T07:30:44.909Z,19.13
2022-07-31T07:31:17.938Z,19.13
2022-07-31T07:31:52.368Z,19.13
2022-07-31T07:32:24.314Z,19.13
2022-07-31T07:32:56.729Z,19.13
2022-07-31T07:33:41.439Z,19.13
2022-07-31T07:34:17.321Z,19.13
2022-07-31T07:35:00.115Z,19.13
2022-07-31T07:36:21.790Z,19.13
2022-07-31T07:37:17.585Z,19.13
2022-07-31T07:37:50.396Z,19.13
2022-07-31T07:38:22.772Z,19.13
2022-07-31T07:38:56.209Z,19.13
2022-07-31T07:39:28.719Z,19.13
2022-07-31T07:40:04.251Z,19.13
2022-07-31T07:40:36.662Z,19.13
2022-07-31T07:41:08.761Z,19.13
2022-07-31T07:41:41.832Z,19.13
2022-07-31T07:42:13.802Z,19.13
2022-07-31T07:42:46.065Z,19.13
2022-07-31T07:43:19.928Z,19.19
2022-07-31T07:43:53.123Z,19.19
2022-07-31T07:44:27.595Z,19.19
2022-07-31T07:44:59.835Z,19.19
2022-07-31T07:45:33.445Z,19.25
2022-07-31T07:46:06.361Z,19.25
2022-07-31T07:46:39.048Z,19.25
2022-07-31T07:47:13.555Z,19.31
2022-07-31T07:47:54.016Z,19.31
2022-07-31T07:48:42.690Z,19.31
2022-07-31T07:49:22.584Z,19.31